Time;durP1;ratioP1;P1;durP2;ratioP2;P2;SDS_P1;SDS_P2;PMS_P1;PMS_P2;Temp;Humidity;BMP_temperature;BMP_pressure;BME280_temperature;BME280_humidity;BME280_pressure;Samples;Min_cycle;Max_cycle;Signal;HPM_P1;HPM_P2
2024/01/04 00:00:58;;;;;;;0.73;0.50;;;;;;;;;;5014116;28;20201;-66
2024/01/04 00:03:26;;;;;;;2.30;0.90;;;;;;;;;;5020009;28;20208;-68
2024/01/04 00:05:53;;;;;;;0.90;0.60;;;;;;;;;;5019573;28;20201;-67
2024/01/04 00:08:20;;;;;;;0.60;0.60;;;;;;;;;;5017288;28;20223;-67
2024/01/04 00:10:47;;;;;;;1.03;0.80;;;;;;;;;;5020938;28;20223;-66
2024/01/04 00:13:14;;;;;;;2.10;0.93;;;;;;;;;;5020352;28;20197;-67
2024/01/04 00:15:41;;;;;;;0.80;0.60;;;;;;;;;;5019187;28;20204;-67
2024/01/04 00:18:10;;;;;;;1.23;0.60;;;;;;;;;;5019991;28;20208;-67
2024/01/04 00:20:37;;;;;;;2.20;1.00;;;;;;;;;;5021940;28;20204;-67
2024/01/04 00:23:04;;;;;;;1.80;0.80;;;;;;;;;;5020712;28;20200;-66
2024/01/04 00:25:31;;;;;;;1.13;0.50;;;;;;;;;;5020204;28;20207;-67
2024/01/04 00:27:58;;;;;;;2.67;0.93;;;;;;;;;;5027218;28;20500;-67
2024/01/04 00:30:25;;;;;;;2.93;0.90;;;;;;;;;;5024885;28;20213;-67
2024/01/04 00:32:52;;;;;;;1.50;0.73;;;;;;;;;;5021838;28;20207;-67
2024/01/04 00:35:22;;;;;;;1.60;0.70;;;;;;;;;;5028015;28;20204;-67
2024/01/04 00:37:49;;;;;;;1.03;0.73;;;;;;;;;;5024325;28;20231;-66
2024/01/04 00:40:16;;;;;;;1.63;0.80;;;;;;;;;;5026909;28;20197;-66
2024/01/04 00:42:43;;;;;;;1.63;0.70;;;;;;;;;;5026397;28;20803;-67
2024/01/04 00:45:11;;;;;;;0.93;0.80;;;;;;;;;;5023149;28;20204;-66
2024/01/04 00:47:38;;;;;;;1.67;0.80;;;;;;;;;;5023520;28;20457;-66
2024/01/04 00:50:05;;;;;;;1.57;0.70;;;;;;;;;;5028224;28;20220;-67
2024/01/04 00:52:34;;;;;;;2.70;0.60;;;;;;;;;;5027772;28;20213;-67
2024/01/04 00:55:01;;;;;;;2.63;0.70;;;;;;;;;;5025400;28;20208;-66
2024/01/04 00:57:28;;;;;;;1.20;0.70;;;;;;;;;;5024903;28;20212;-66
2024/01/04 00:59:55;;;;;;;2.83;0.80;;;;;;;;;;5027307;28;20209;-66
2024/01/04 01:02:22;;;;;;;1.50;0.40;;;;;;;;;;5023291;28;20206;-66
2024/01/04 01:04:49;;;;;;;0.40;0.40;;;;;;;;;;5024398;28;20231;-66
2024/01/04 01:07:16;;;;;;;0.67;0.20;;;;;;;;;;5026320;28;20204;-67
2024/01/04 01:09:45;;;;;;;1.97;0.50;;;;;;;;;;5020425;28;20238;-67
2024/01/04 01:12:12;;;;;;;1.70;0.60;;;;;;;;;;5023079;28;20208;-66
2024/01/04 01:14:39;;;;;;;1.60;0.50;;;;;;;;;;5021254;28;20204;-66
2024/01/04 01:17:06;;;;;;;0.57;0.30;;;;;;;;;;5029123;28;20208;-65
2024/01/04 01:19:33;;;;;;;0.43;0.43;;;;;;;;;;5027994;28;20291;-66
2024/01/04 01:22:00;;;;;;;0.33;0.33;;;;;;;;;;5019743;28;20200;-65
2024/01/04 01:24:27;;;;;;;0.47;0.30;;;;;;;;;;5027414;28;20223;-67
2024/01/04 01:26:56;;;;;;;0.57;0.30;;;;;;;;;;5018976;28;20206;-66
2024/01/04 01:29:23;;;;;;;0.50;0.37;;;;;;;;;;5026552;28;20220;-66
2024/01/04 01:31:50;;;;;;;1.27;0.47;;;;;;;;;;5023316;28;20208;-66
2024/01/04 01:34:17;;;;;;;0.47;0.30;;;;;;;;;;5025464;28;20207;-65
2024/01/04 01:36:45;;;;;;;0.67;0.50;;;;;;;;;;5023743;28;20245;-66
2024/01/04 01:39:12;;;;;;;0.50;0.50;;;;;;;;;;5023584;28;20204;-66
2024/01/04 01:41:39;;;;;;;1.20;0.40;;;;;;;;;;5025255;28;20204;-65
2024/01/04 01:44:08;;;;;;;0.63;0.50;;;;;;;;;;5024396;28;20206;-67
2024/01/04 01:46:35;;;;;;;0.37;0.30;;;;;;;;;;5022115;28;20201;-67
2024/01/04 01:49:02;;;;;;;0.50;0.50;;;;;;;;;;5024166;28;20240;-67
2024/01/04 01:51:30;;;;;;;0.80;0.40;;;;;;;;;;5023101;28;20212;-66
2024/01/04 01:53:57;;;;;;;1.37;0.40;;;;;;;;;;5015578;28;20432;-66
2024/01/04 01:56:24;;;;;;;1.10;0.43;;;;;;;;;;5013186;28;20201;-66
2024/01/04 01:58:53;;;;;;;1.40;0.37;;;;;;;;;;5020732;28;20193;-66
2024/01/04 02:01:21;;;;;;;0.73;0.27;;;;;;;;;;5028140;28;20210;-67
2024/01/04 02:03:49;;;;;;;0.40;0.30;;;;;;;;;;5022733;28;20242;-66
2024/01/04 02:06:16;;;;;;;0.70;0.30;;;;;;;;;;5025260;28;20204;-66
2024/01/04 02:08:44;;;;;;;1.33;0.60;;;;;;;;;;5025354;28;20224;-66
2024/01/04 02:11:11;;;;;;;0.73;0.40;;;;;;;;;;5023094;28;20205;-66
2024/01/04 02:13:38;;;;;;;1.10;0.50;;;;;;;;;;5019267;28;20213;-67
2024/01/04 02:16:05;;;;;;;0.40;0.30;;;;;;;;;;5024351;28;20214;-67
2024/01/04 02:18:34;;;;;;;0.30;0.30;;;;;;;;;;5020105;28;20203;-67
2024/01/04 02:21:02;;;;;;;1.67;0.50;;;;;;;;;;5024966;28;20207;-67
2024/01/04 02:23:30;;;;;;;1.33;0.47;;;;;;;;;;5021995;28;20214;-66
2024/01/04 02:25:57;;;;;;;1.37;0.33;;;;;;;;;;5021115;28;20201;-66
2024/01/04 02:28:25;;;;;;;1.07;0.50;;;;;;;;;;5022192;28;20209;-66
2024/01/04 02:30:52;;;;;;;0.63;0.50;;;;;;;;;;5022251;28;20230;-67
2024/01/04 02:33:19;;;;;;;0.77;0.50;;;;;;;;;;5026085;28;20202;-67
2024/01/04 02:35:46;;;;;;;0.60;0.33;;;;;;;;;;5023791;28;20215;-66
2024/01/04 02:38:13;;;;;;;0.63;0.40;;;;;;;;;;5021441;28;20232;-67
2024/01/04 02:40:41;;;;;;;0.57;0.40;;;;;;;;;;5023015;28;20286;-66
2024/01/04 02:43:09;;;;;;;1.17;0.50;;;;;;;;;;5024596;28;20211;-67
2024/01/04 02:45:36;;;;;;;0.87;0.37;;;;;;;;;;5021843;28;20204;-67
2024/01/04 02:48:04;;;;;;;1.23;0.60;;;;;;;;;;5021184;28;20209;-67
2024/01/04 02:50:31;;;;;;;1.50;0.50;;;;;;;;;;5021589;28;20234;-67
2024/01/04 02:52:58;;;;;;;0.67;0.37;;;;;;;;;;5019948;28;20303;-66
2024/01/04 02:55:25;;;;;;;0.23;0.23;;;;;;;;;;5032162;28;21431;-66
2024/01/04 02:57:54;;;;;;;1.10;0.60;;;;;;;;;;5023314;28;20494;-66
2024/01/04 03:00:22;;;;;;;1.93;0.70;;;;;;;;;;5024256;28;20205;-66
2024/01/04 03:02:49;;;;;;;2.50;0.70;;;;;;;;;;5021094;28;20216;-66
2024/01/04 03:05:18;;;;;;;3.70;0.97;;;;;;;;;;5020696;28;20200;-66
2024/01/04 03:07:45;;;;;;;1.70;0.80;;;;;;;;;;5022732;28;20204;-67
2024/01/04 03:10:12;;;;;;;3.60;0.87;;;;;;;;;;5024383;28;20220;-66
2024/01/04 03:12:39;;;;;;;2.07;0.70;;;;;;;;;;5022403;28;20290;-66
2024/01/04 03:15:09;;;;;;;0.60;0.50;;;;;;;;;;5024628;28;20208;-66
2024/01/04 03:17:36;;;;;;;2.10;0.73;;;;;;;;;;5018685;28;20278;-66
2024/01/04 03:20:02;;;;;;;2.13;0.70;;;;;;;;;;5022892;28;20189;-66
2024/01/04 03:22:29;;;;;;;2.10;0.80;;;;;;;;;;5020323;28;20223;-67
2024/01/04 03:24:57;;;;;;;1.07;0.50;;;;;;;;;;5018754;28;20211;-66
2024/01/04 03:27:24;;;;;;;0.83;0.60;;;;;;;;;;5021825;28;20201;-66
2024/01/04 03:29:52;;;;;;;0.80;0.60;;;;;;;;;;5018609;28;20243;-66
2024/01/04 03:32:21;;;;;;;1.23;0.60;;;;;;;;;;5021837;28;20273;-66
2024/01/04 03:34:48;;;;;;;1.03;0.50;;;;;;;;;;5018927;28;20268;-67
2024/01/04 03:37:15;;;;;;;1.03;0.67;;;;;;;;;;5022229;28;20224;-66
2024/01/04 03:39:42;;;;;;;1.07;0.60;;;;;;;;;;5023927;28;20223;-67
2024/01/04 03:42:09;;;;;;;0.70;0.30;;;;;;;;;;5021264;28;20228;-67
2024/01/04 03:44:37;;;;;;;1.30;0.50;;;;;;;;;;5021324;28;20200;-61
2024/01/04 03:47:05;;;;;;;1.23;0.47;;;;;;;;;;5022965;28;20204;-62
2024/01/04 03:49:33;;;;;;;1.50;0.50;;;;;;;;;;5020087;28;20224;-62
2024/01/04 03:52:00;;;;;;;0.73;0.30;;;;;;;;;;5022698;28;20215;-63
2024/01/04 03:54:28;;;;;;;0.40;0.30;;;;;;;;;;5014197;28;20521;-62
2024/01/04 03:56:55;;;;;;;1.00;0.33;;;;;;;;;;5018308;28;20218;-61
2024/01/04 03:59:22;;;;;;;0.83;0.40;;;;;;;;;;5019673;28;20203;-62
2024/01/04 04:01:49;;;;;;;0.20;0.20;;;;;;;;;;5020822;28;20207;-62
2024/01/04 04:04:16;;;;;;;1.23;0.50;;;;;;;;;;5025709;28;20203;-61
2024/01/04 04:06:45;;;;;;;1.73;0.50;;;;;;;;;;5024333;28;20209;-62
2024/01/04 04:09:12;;;;;;;0.50;0.50;;;;;;;;;;5025873;28;20251;-62
2024/01/04 04:11:39;;;;;;;0.77;0.40;;;;;;;;;;5027312;28;20208;-62
2024/01/04 04:14:07;;;;;;;1.50;0.50;;;;;;;;;;5027435;28;20212;-62
2024/01/04 04:16:34;;;;;;;2.00;0.70;;;;;;;;;;5019383;28;20208;-62
2024/01/04 04:19:01;;;;;;;2.03;0.50;;;;;;;;;;5023422;28;20263;-61
2024/01/04 04:21:28;;;;;;;0.73;0.50;;;;;;;;;;5027627;28;20205;-61
2024/01/04 04:23:57;;;;;;;0.93;0.40;;;;;;;;;;5028394;28;20196;-61
2024/01/04 04:26:24;;;;;;;0.80;0.30;;;;;;;;;;5025919;28;20204;-62
2024/01/04 04:28:51;;;;;;;1.07;0.40;;;;;;;;;;5027146;28;20279;-62
2024/01/04 04:31:19;;;;;;;1.30;0.40;;;;;;;;;;5026674;28;20220;-63
2024/01/04 04:33:47;;;;;;;0.57;0.30;;;;;;;;;;5024710;28;20197;-62
2024/01/04 04:36:14;;;;;;;1.20;0.50;;;;;;;;;;5025043;28;20206;-62
2024/01/04 04:38:42;;;;;;;1.73;0.50;;;;;;;;;;5022580;28;20330;-61
2024/01/04 04:41:10;;;;;;;0.80;0.50;;;;;;;;;;5025168;28;20246;-63
2024/01/04 04:43:37;;;;;;;0.20;0.20;;;;;;;;;;5032482;28;20211;-63
2024/01/04 04:46:09;;;;;;;0.57;0.30;;;;;;;;;;5026833;28;20208;-62
2024/01/04 04:48:37;;;;;;;1.17;0.50;;;;;;;;;;5022496;28;20212;-62
2024/01/04 04:51:04;;;;;;;0.90;0.37;;;;;;;;;;5023168;28;20270;-63
2024/01/04 04:53:31;;;;;;;1.17;0.57;;;;;;;;;;5022286;28;20210;-63
2024/01/04 04:55:59;;;;;;;0.90;0.40;;;;;;;;;;5026756;28;20211;-62
2024/01/04 04:58:27;;;;;;;0.50;0.30;;;;;;;;;;5029176;28;20243;-62
2024/01/04 05:00:54;;;;;;;2.30;0.60;;;;;;;;;;5025972;28;20208;-63
2024/01/04 05:03:21;;;;;;;1.03;0.30;;;;;;;;;;5023980;28;20254;-62
2024/01/04 05:05:48;;;;;;;0.83;0.60;;;;;;;;;;5025210;28;20529;-62
2024/01/04 05:08:16;;;;;;;1.10;0.50;;;;;;;;;;5022394;28;20287;-62
2024/01/04 05:10:43;;;;;;;3.03;0.50;;;;;;;;;;5026487;28;20224;-62
2024/01/04 05:13:10;;;;;;;0.47;0.30;;;;;;;;;;5019899;28;20205;-67
2024/01/04 05:15:38;;;;;;;0.20;0.10;;;;;;;;;;5024807;28;20213;-66
2024/01/04 05:18:08;;;;;;;0.40;0.37;;;;;;;;;;5021992;28;20204;-67
2024/01/04 05:20:35;;;;;;;1.33;0.33;;;;;;;;;;5024431;28;20208;-66
2024/01/04 05:23:02;;;;;;;0.80;0.40;;;;;;;;;;5028825;28;20208;-67
2024/01/04 05:25:29;;;;;;;0.60;0.23;;;;;;;;;;5024285;28;20212;-67
2024/01/04 05:27:57;;;;;;;0.47;0.47;;;;;;;;;;5024839;28;20196;-66
2024/01/04 05:30:24;;;;;;;1.50;0.30;;;;;;;;;;5021315;28;20315;-66
2024/01/04 05:32:52;;;;;;;0.17;0.10;;;;;;;;;;5020513;28;20208;-66
2024/01/04 05:35:19;;;;;;;0.17;0.13;;;;;;;;;;5024831;28;20204;-66
2024/01/04 05:37:46;;;;;;;0.60;0.20;;;;;;;;;;5024930;28;20236;-67
2024/01/04 05:40:14;;;;;;;0.30;0.30;;;;;;;;;;5024256;28;20196;-66
2024/01/04 05:42:41;;;;;;;0.53;0.20;;;;;;;;;;5023690;28;20211;-65
2024/01/04 05:45:08;;;;;;;1.30;0.67;;;;;;;;;;5024058;28;20203;-66
2024/01/04 05:47:35;;;;;;;0.57;0.30;;;;;;;;;;5022386;28;20208;-66
2024/01/04 05:50:04;;;;;;;0.20;0.20;;;;;;;;;;5023436;28;20224;-66
2024/01/04 05:52:31;;;;;;;0.43;0.27;;;;;;;;;;5015043;28;20209;-66
2024/01/04 05:54:58;;;;;;;2.03;0.50;;;;;;;;;;5012181;28;20219;-66
2024/01/04 05:57:27;;;;;;;2.10;0.50;;;;;;;;;;5013687;28;20208;-66
2024/01/04 05:59:54;;;;;;;1.00;0.30;;;;;;;;;;5022972;28;20204;-66
2024/01/04 06:02:22;;;;;;;1.20;0.47;;;;;;;;;;5021797;28;20227;-66
2024/01/04 06:04:49;;;;;;;0.47;0.30;;;;;;;;;;5024044;28;20211;-66
2024/01/04 06:07:18;;;;;;;1.10;0.87;;;;;;;;;;5021518;28;20211;-66
2024/01/04 06:09:45;;;;;;;1.73;0.50;;;;;;;;;;5022551;28;20200;-66
2024/01/04 06:12:12;;;;;;;0.83;0.53;;;;;;;;;;5024631;28;20207;-65
2024/01/04 06:14:39;;;;;;;0.57;0.40;;;;;;;;;;5024205;28;20200;-66
2024/01/04 06:17:07;;;;;;;1.10;0.50;;;;;;;;;;5026032;28;20200;-65
2024/01/04 06:19:35;;;;;;;0.53;0.37;;;;;;;;;;5022777;28;20212;-66
2024/01/04 06:22:02;;;;;;;0.87;0.47;;;;;;;;;;5021333;28;20215;-65
2024/01/04 06:24:31;;;;;;;1.37;0.50;;;;;;;;;;5017878;28;20225;-65
2024/01/04 06:26:58;;;;;;;0.77;0.40;;;;;;;;;;5019610;28;20213;-66
2024/01/04 06:29:25;;;;;;;1.47;0.43;;;;;;;;;;5022814;28;20208;-66
2024/01/04 06:31:52;;;;;;;0.80;0.40;;;;;;;;;;5024414;28;20239;-66
2024/01/04 06:34:20;;;;;;;0.20;0.20;;;;;;;;;;5022775;28;20230;-66
2024/01/04 06:36:47;;;;;;;1.13;0.43;;;;;;;;;;5023047;28;20239;-66
2024/01/04 06:39:15;;;;;;;0.47;0.30;;;;;;;;;;5023196;28;20239;-67
2024/01/04 06:41:44;;;;;;;0.20;0.20;;;;;;;;;;5021245;28;20250;-65
2024/01/04 06:44:12;;;;;;;0.53;0.20;;;;;;;;;;5019253;28;20238;-66
2024/01/04 06:46:39;;;;;;;1.10;0.30;;;;;;;;;;5022087;28;20214;-65
2024/01/04 06:49:06;;;;;;;0.33;0.20;;;;;;;;;;5021656;28;20206;-66
2024/01/04 06:51:33;;;;;;;0.83;0.30;;;;;;;;;;5022839;28;20224;-66
2024/01/04 06:54:01;;;;;;;0.57;0.30;;;;;;;;;;5018881;28;20251;-65
2024/01/04 06:56:28;;;;;;;0.37;0.20;;;;;;;;;;5021096;28;20204;-65
2024/01/04 06:58:56;;;;;;;0.40;0.23;;;;;;;;;;5019763;28;20211;-65
2024/01/04 07:01:23;;;;;;;0.43;0.40;;;;;;;;;;5024244;28;20209;-65
2024/01/04 07:03:51;;;;;;;0.83;0.50;;;;;;;;;;5020673;28;20202;-65
2024/01/04 07:06:18;;;;;;;1.80;0.50;;;;;;;;;;5019581;28;20212;-66
2024/01/04 07:08:45;;;;;;;0.97;0.40;;;;;;;;;;5020849;28;20318;-66
2024/01/04 07:11:12;;;;;;;0.87;0.60;;;;;;;;;;5022241;28;20220;-66
2024/01/04 07:13:39;;;;;;;0.67;0.33;;;;;;;;;;5023258;28;20208;-66
2024/01/04 07:16:09;;;;;;;0.33;0.30;;;;;;;;;;5023016;28;20201;-66
2024/01/04 07:18:37;;;;;;;2.23;0.40;;;;;;;;;;5022456;28;20239;-66
2024/01/04 07:21:04;;;;;;;0.33;0.30;;;;;;;;;;5021832;28;20215;-66
2024/01/04 07:23:32;;;;;;;1.20;0.60;;;;;;;;;;5018342;28;20209;-66
2024/01/04 07:25:59;;;;;;;0.10;0.10;;;;;;;;;;5021934;28;20200;-66
2024/01/04 07:28:26;;;;;;;0.83;0.30;;;;;;;;;;5022253;28;20204;-66
2024/01/04 07:30:53;;;;;;;1.97;0.50;;;;;;;;;;5021145;28;20232;-65
2024/01/04 07:33:23;;;;;;;2.60;0.50;;;;;;;;;;5025391;28;20199;-66
2024/01/04 07:35:50;;;;;;;1.00;0.60;;;;;;;;;;5022069;28;20229;-66
2024/01/04 07:38:17;;;;;;;0.30;0.30;;;;;;;;;;5025829;28;20232;-66
2024/01/04 07:40:44;;;;;;;1.10;0.60;;;;;;;;;;5025543;28;20207;-66
2024/01/04 07:43:12;;;;;;;1.30;0.53;;;;;;;;;;5028596;28;20210;-66
2024/01/04 07:45:39;;;;;;;2.53;0.87;;;;;;;;;;5028442;28;20196;-66
2024/01/04 07:48:06;;;;;;;2.57;0.83;;;;;;;;;;5025559;28;20209;-66
2024/01/04 07:50:35;;;;;;;1.70;0.60;;;;;;;;;;5028384;28;20234;-66
2024/01/04 07:53:02;;;;;;;2.60;1.03;;;;;;;;;;5017636;28;20212;-66
2024/01/04 07:55:29;;;;;;;1.77;0.80;;;;;;;;;;5012708;28;20223;-66
2024/01/04 07:57:56;;;;;;;2.20;0.80;;;;;;;;;;5017829;28;20207;-66
2024/01/04 08:00:23;;;;;;;4.27;0.97;;;;;;;;;;5026646;28;20204;-66
2024/01/04 08:02:51;;;;;;;5.23;1.10;;;;;;;;;;5027806;28;20652;-66
2024/01/04 08:05:18;;;;;;;4.97;1.30;;;;;;;;;;5022369;28;20279;-66
2024/01/04 08:07:47;;;;;;;6.17;1.20;;;;;;;;;;5029400;28;20204;-66
2024/01/04 08:10:14;;;;;;;2.23;1.07;;;;;;;;;;5024860;28;20214;-66
2024/01/04 08:12:42;;;;;;;5.23;1.47;;;;;;;;;;5029834;28;20204;-66
2024/01/04 08:15:10;;;;;;;4.60;1.10;;;;;;;;;;5024751;28;20285;-66
2024/01/04 08:17:37;;;;;;;1.93;0.93;;;;;;;;;;5023285;28;20217;-66
2024/01/04 08:20:05;;;;;;;5.70;1.40;;;;;;;;;;5028354;28;20242;-66
2024/01/04 08:22:32;;;;;;;2.73;1.10;;;;;;;;;;5025890;28;20204;-66
2024/01/04 08:25:00;;;;;;;4.10;1.13;;;;;;;;;;5030441;28;20200;-65
2024/01/04 08:27:28;;;;;;;3.53;1.00;;;;;;;;;;5026203;28;20202;-66
2024/01/04 08:29:55;;;;;;;4.40;0.97;;;;;;;;;;5023882;28;20375;-66
2024/01/04 08:32:22;;;;;;;3.30;0.90;;;;;;;;;;5027296;28;20230;-66
2024/01/04 08:34:49;;;;;;;3.77;1.30;;;;;;;;;;5025798;28;20208;-66
2024/01/04 08:37:18;;;;;;;4.50;1.20;;;;;;;;;;5025308;28;20314;-66
2024/01/04 08:39:46;;;;;;;3.73;1.00;;;;;;;;;;5024442;28;20297;-66
2024/01/04 08:42:15;;;;;;;4.27;1.43;;;;;;;;;;5020504;28;20200;-65
2024/01/04 08:44:42;;;;;;;5.13;1.20;;;;;;;;;;5024009;28;20200;-66
2024/01/04 08:47:09;;;;;;;4.87;1.20;;;;;;;;;;5024328;28;20200;-66
2024/01/04 08:49:36;;;;;;;6.20;1.60;;;;;;;;;;5018005;28;20205;-66
2024/01/04 08:52:04;;;;;;;7.50;1.50;;;;;;;;;;5018508;28;20250;-66
2024/01/04 08:54:31;;;;;;;5.77;1.50;;;;;;;;;;5021369;28;20212;-65
2024/01/04 08:56:58;;;;;;;6.73;1.97;;;;;;;;;;5025655;28;20203;-66
2024/01/04 08:59:26;;;;;;;7.40;2.03;;;;;;;;;;5025030;28;20206;-65
2024/01/04 09:01:54;;;;;;;8.70;2.00;;;;;;;;;;5021123;28;20224;-66
2024/01/04 09:04:21;;;;;;;7.13;1.63;;;;;;;;;;5025832;28;20204;-66
2024/01/04 09:06:48;;;;;;;8.30;2.13;;;;;;;;;;5017273;28;20207;-66
2024/01/04 09:09:16;;;;;;;11.47;2.40;;;;;;;;;;5020039;28;20208;-66
2024/01/04 09:11:48;;;;;;;9.03;2.40;;;;;;;;;;5017613;28;20232;-66
2024/01/04 09:14:15;;;;;;;12.53;2.80;;;;;;;;;;5020293;28;20238;-66
2024/01/04 09:16:44;;;;;;;8.07;2.40;;;;;;;;;;5021670;28;20430;-66
2024/01/04 09:19:14;;;;;;;8.87;1.90;;;;;;;;;;5020951;28;20201;-66
2024/01/04 09:21:41;;;;;;;9.53;1.80;;;;;;;;;;5020765;28;20193;-66
2024/01/04 09:24:08;;;;;;;9.87;2.43;;;;;;;;;;5027383;28;20195;-65
2024/01/04 09:26:39;;;;;;;9.00;2.17;;;;;;;;;;5022843;28;20210;-66
2024/01/04 09:29:07;;;;;;;8.87;1.83;;;;;;;;;;5022227;28;20197;-66
2024/01/04 09:31:34;;;;;;;8.73;1.73;;;;;;;;;;5022155;28;20217;-66
2024/01/04 09:34:03;;;;;;;12.97;1.80;;;;;;;;;;5023719;28;20209;-65
2024/01/04 09:36:30;;;;;;;10.80;1.90;;;;;;;;;;5021296;28;20215;-66
2024/01/04 09:38:57;;;;;;;6.20;1.80;;;;;;;;;;5025232;28;20272;-66
2024/01/04 09:41:26;;;;;;;7.73;1.87;;;;;;;;;;5025136;28;20192;-66
2024/01/04 09:43:55;;;;;;;6.33;1.37;;;;;;;;;;5025679;28;20204;-66
2024/01/04 09:46:25;;;;;;;3.07;1.23;;;;;;;;;;5020797;28;20212;-65
2024/01/04 09:48:55;;;;;;;6.07;1.70;;;;;;;;;;5023630;28;20268;-66
2024/01/04 09:51:24;;;;;;;6.30;1.50;;;;;;;;;;5017611;28;20244;-65
2024/01/04 09:53:54;;;;;;;3.53;1.57;;;;;;;;;;5013328;28;20212;-66
2024/01/04 09:56:22;;;;;;;7.50;2.30;;;;;;;;;;5012858;28;20211;-65
2024/01/04 09:58:49;;;;;;;6.53;1.50;;;;;;;;;;5022154;28;20204;-66
2024/01/04 10:01:20;;;;;;;5.20;1.60;;;;;;;;;;5021546;28;20204;-66
2024/01/04 10:03:48;;;;;;;4.90;1.73;;;;;;;;;;5025473;28;20266;-66
2024/01/04 10:06:21;;;;;;;3.17;1.37;;;;;;;;;;5022522;28;20262;-65
2024/01/04 10:08:52;;;;;;;6.53;1.33;;;;;;;;;;5019987;28;20200;-66
2024/01/04 10:11:23;;;;;;;3.37;1.43;;;;;;;;;;5023011;28;20224;-66
2024/01/04 10:13:50;;;;;;;5.20;1.80;;;;;;;;;;5022506;28;20214;-66
2024/01/04 10:16:18;;;;;;;6.93;2.10;;;;;;;;;;5016988;28;20205;-66
2024/01/04 10:18:45;;;;;;;5.33;3.07;;;;;;;;;;5019533;28;20203;-66
2024/01/04 10:21:12;;;;;;;6.40;2.20;;;;;;;;;;5024971;28;20208;-66
2024/01/04 10:23:41;;;;;;;9.13;2.13;;;;;;;;;;5008202;28;20256;-66
2024/01/04 10:26:11;;;;;;;9.17;2.60;;;;;;;;;;5017435;28;20208;-66
2024/01/04 10:28:39;;;;;;;11.90;2.70;;;;;;;;;;5018912;28;20258;-66
2024/01/04 10:31:08;;;;;;;5.77;1.87;;;;;;;;;;5020905;28;20200;-66
2024/01/04 10:33:36;;;;;;;7.63;1.90;;;;;;;;;;5022029;28;20282;-67
2024/01/04 10:36:09;;;;;;;6.57;1.97;;;;;;;;;;5026088;28;20227;-66
2024/01/04 10:38:37;;;;;;;6.43;2.03;;;;;;;;;;5008749;28;20256;-66
2024/01/04 10:41:04;;;;;;;7.07;2.20;;;;;;;;;;5004637;28;20215;-66
2024/01/04 10:43:33;;;;;;;6.87;2.10;;;;;;;;;;5006715;28;20295;-66
2024/01/04 10:46:08;;;;;;;5.93;1.60;;;;;;;;;;5022348;28;20204;-66
2024/01/04 10:48:35;;;;;;;8.87;1.90;;;;;;;;;;5009722;28;20284;-67
2024/01/04 10:51:04;;;;;;;4.77;1.67;;;;;;;;;;5008322;28;20212;-65
2024/01/04 10:53:32;;;;;;;7.47;1.90;;;;;;;;;;5006314;28;20207;-67
2024/01/04 10:56:00;;;;;;;4.00;1.60;;;;;;;;;;5017841;28;20261;-65
2024/01/04 10:58:27;;;;;;;6.33;1.90;;;;;;;;;;5007552;28;20321;-66
2024/01/04 11:00:56;;;;;;;5.47;1.50;;;;;;;;;;5007030;28;20211;-66
2024/01/04 11:03:23;;;;;;;3.93;1.27;;;;;;;;;;5020461;28;20201;-67
2024/01/04 11:05:51;;;;;;;2.93;1.17;;;;;;;;;;5022577;28;20206;-66
2024/01/04 11:08:19;;;;;;;2.03;0.97;;;;;;;;;;5021755;28;20209;-67
2024/01/04 11:10:46;;;;;;;7.67;1.70;;;;;;;;;;5020983;28;20240;-66
2024/01/04 11:13:14;;;;;;;8.00;2.23;;;;;;;;;;5022781;28;20231;-67
2024/01/04 11:15:41;;;;;;;4.83;1.60;;;;;;;;;;5008942;28;20200;-66
2024/01/04 11:18:15;;;;;;;6.27;1.57;;;;;;;;;;5008186;28;20208;-65
2024/01/04 11:20:49;;;;;;;6.37;1.70;;;;;;;;;;5020762;28;20204;-66
2024/01/04 11:23:26;;;;;;;6.90;2.00;;;;;;;;;;5017225;28;20231;-66
2024/01/04 11:26:12;;;;;;;5.67;1.80;;;;;;;;;;5018685;28;20199;-66
2024/01/04 11:28:40;;;;;;;7.03;2.10;;;;;;;;;;5022229;28;20205;-66
2024/01/04 11:31:07;;;;;;;7.03;2.77;;;;;;;;;;5018867;28;20204;-66
2024/01/04 11:33:40;;;;;;;8.43;2.70;;;;;;;;;;5018746;28;20228;-66
2024/01/04 11:36:08;;;;;;;6.67;2.67;;;;;;;;;;5018050;28;20215;-66
2024/01/04 11:38:35;;;;;;;9.03;2.67;;;;;;;;;;5014048;28;20240;-66
2024/01/04 11:41:02;;;;;;;10.37;4.20;;;;;;;;;;5021594;28;20196;-66
2024/01/04 11:43:35;;;;;;;11.67;4.63;;;;;;;;;;5007906;28;20209;-66
2024/01/04 11:46:03;;;;;;;5.83;2.30;;;;;;;;;;5003619;28;20207;-66
2024/01/04 11:48:30;;;;;;;7.03;2.00;;;;;;;;;;5007276;28;20214;-65
2024/01/04 11:51:00;;;;;;;6.37;2.50;;;;;;;;;;5006017;28;20580;-66
2024/01/04 11:53:28;;;;;;;9.93;2.87;;;;;;;;;;5006486;28;20278;-66
2024/01/04 11:56:06;;;;;;;6.77;2.10;;;;;;;;;;5021169;28;20208;-67
2024/01/04 11:58:33;;;;;;;6.47;2.23;;;;;;;;;;5015327;28;20212;-66
2024/01/04 12:01:02;;;;;;;10.77;2.87;;;;;;;;;;5020829;28;20196;-66
2024/01/04 12:03:30;;;;;;;8.33;2.13;;;;;;;;;;5017383;28;20201;-67
2024/01/04 12:06:00;;;;;;;8.47;2.23;;;;;;;;;;5026571;28;20230;-66
2024/01/04 12:08:28;;;;;;;8.97;2.00;;;;;;;;;;5019909;28;20204;-66
2024/01/04 12:10:57;;;;;;;9.00;2.40;;;;;;;;;;5020183;28;20216;-66
2024/01/04 12:13:24;;;;;;;7.30;2.10;;;;;;;;;;5022110;28;20224;-66
2024/01/04 12:15:52;;;;;;;10.57;2.23;;;;;;;;;;5023685;28;20200;-61
2024/01/04 12:18:20;;;;;;;6.83;1.87;;;;;;;;;;5024213;28;20204;-61
2024/01/04 12:20:47;;;;;;;7.43;1.80;;;;;;;;;;5023877;28;20196;-62
2024/01/04 12:23:16;;;;;;;4.60;1.53;;;;;;;;;;5023597;28;20233;-61
2024/01/04 12:25:44;;;;;;;7.47;2.30;;;;;;;;;;5022601;28;20207;-60
2024/01/04 12:28:13;;;;;;;8.10;2.23;;;;;;;;;;5023090;28;20203;-61
2024/01/04 12:30:41;;;;;;;8.80;2.23;;;;;;;;;;5026076;28;20196;-61
2024/01/04 12:33:10;;;;;;;7.77;2.10;;;;;;;;;;5024918;28;20224;-62
2024/01/04 12:35:38;;;;;;;7.97;2.10;;;;;;;;;;5020359;28;20219;-62
2024/01/04 12:38:06;;;;;;;10.63;2.80;;;;;;;;;;5022089;28;20336;-61
2024/01/04 12:40:40;;;;;;;10.40;1.97;;;;;;;;;;5024426;28;20208;-60
2024/01/04 12:43:10;;;;;;;9.33;2.30;;;;;;;;;;5024404;28;20292;-61
2024/01/04 12:45:37;;;;;;;6.20;2.03;;;;;;;;;;5022842;28;20196;-62
2024/01/04 12:48:05;;;;;;;7.50;2.20;;;;;;;;;;5010111;28;20235;-61
2024/01/04 12:50:33;;;;;;;6.27;2.00;;;;;;;;;;5010821;28;20267;-63
2024/01/04 12:53:01;;;;;;;6.93;2.07;;;;;;;;;;5010324;28;20236;-62
2024/01/04 12:55:28;;;;;;;11.50;2.10;;;;;;;;;;5008050;28;20244;-61
2024/01/04 12:57:58;;;;;;;10.07;2.37;;;;;;;;;;5006631;28;20201;-61
2024/01/04 13:00:25;;;;;;;8.20;2.07;;;;;;;;;;5008310;28;20208;-62
2024/01/04 13:02:53;;;;;;;7.23;2.30;;;;;;;;;;5003895;28;20216;-63
2024/01/04 13:05:20;;;;;;;13.20;2.80;;;;;;;;;;5008356;28;20211;-62
2024/01/04 13:07:50;;;;;;;10.10;4.10;;;;;;;;;;5005670;28;20227;-63
2024/01/04 13:10:17;;;;;;;10.77;4.00;;;;;;;;;;5011561;28;20201;-62
2024/01/04 13:12:44;;;;;;;9.13;2.10;;;;;;;;;;5016082;28;20220;-61
2024/01/04 13:15:12;;;;;;;8.77;2.40;;;;;;;;;;5022819;28;20204;-62
2024/01/04 13:17:40;;;;;;;9.23;2.40;;;;;;;;;;5021946;28;20212;-61
2024/01/04 13:20:08;;;;;;;9.47;2.83;;;;;;;;;;5025185;28;20209;-62
2024/01/04 13:22:35;;;;;;;8.03;2.53;;;;;;;;;;5024749;28;20218;-62
2024/01/04 13:25:02;;;;;;;11.13;3.50;;;;;;;;;;5024443;28;20201;-65
2024/01/04 13:27:28;;;;;;;8.77;3.10;;;;;;;;;;5021124;28;20205;-66
2024/01/04 13:29:56;;;;;;;8.63;2.50;;;;;;;;;;5015163;28;20205;-66
2024/01/04 13:32:24;;;;;;;8.57;2.60;;;;;;;;;;5025675;28;20314;-66
2024/01/04 13:34:52;;;;;;;5.83;2.33;;;;;;;;;;5024865;28;20211;-66
2024/01/04 13:37:19;;;;;;;6.53;2.30;;;;;;;;;;5020836;28;20260;-66
2024/01/04 13:39:46;;;;;;;6.83;2.57;;;;;;;;;;5024929;28;20273;-66
2024/01/04 13:42:15;;;;;;;8.73;2.50;;;;;;;;;;5022649;28;20207;-66
2024/01/04 13:44:42;;;;;;;7.40;2.33;;;;;;;;;;5024158;28;20291;-65
2024/01/04 13:47:09;;;;;;;11.13;2.60;;;;;;;;;;5014330;28;20209;-66
2024/01/04 13:49:39;;;;;;;8.33;2.10;;;;;;;;;;5011579;28;20226;-66
2024/01/04 13:52:06;;;;;;;8.20;2.17;;;;;;;;;;5011756;28;20275;-65
2024/01/04 13:54:33;;;;;;;7.00;2.37;;;;;;;;;;5024693;28;20273;-66
2024/01/04 13:57:01;;;;;;;10.23;2.20;;;;;;;;;;5024882;28;20201;-66
2024/01/04 13:59:30;;;;;;;7.67;2.50;;;;;;;;;;5020529;28;20299;-66
2024/01/04 14:01:57;;;;;;;8.53;2.50;;;;;;;;;;5022817;28;20236;-66
2024/01/04 14:04:24;;;;;;;8.40;2.43;;;;;;;;;;5023236;28;20207;-67
2024/01/04 14:06:52;;;;;;;11.43;3.37;;;;;;;;;;5022446;28;20210;-67
2024/01/04 14:09:20;;;;;;;9.67;3.63;;;;;;;;;;5012614;28;20212;-66
2024/01/04 14:11:47;;;;;;;12.40;4.43;;;;;;;;;;5009447;28;20212;-66
2024/01/04 14:14:14;;;;;;;10.93;3.67;;;;;;;;;;5005613;28;20226;-66
2024/01/04 14:16:41;;;;;;;10.97;3.20;;;;;;;;;;5007093;28;20814;-65
2024/01/04 14:19:09;;;;;;;11.77;3.90;;;;;;;;;;5006468;28;20214;-66
2024/01/04 14:21:36;;;;;;;11.67;3.10;;;;;;;;;;5004159;28;20291;-66
2024/01/04 14:24:05;;;;;;;12.23;3.80;;;;;;;;;;5014526;28;20204;-66
2024/01/04 14:26:32;;;;;;;7.67;2.90;;;;;;;;;;5022847;28;20235;-66
2024/01/04 14:29:00;;;;;;;8.30;3.10;;;;;;;;;;5020700;28;20205;-66
2024/01/04 14:31:28;;;;;;;14.87;3.97;;;;;;;;;;5018534;28;20266;-66
2024/01/04 14:33:55;;;;;;;8.47;3.00;;;;;;;;;;5025723;28;20259;-65
2024/01/04 14:36:22;;;;;;;9.97;3.10;;;;;;;;;;5025691;28;20215;-66
2024/01/04 14:38:49;;;;;;;10.33;3.10;;;;;;;;;;5022992;28;20208;-66
2024/01/04 14:41:18;;;;;;;9.90;3.07;;;;;;;;;;5021544;28;20205;-66
2024/01/04 14:43:45;;;;;;;12.10;2.77;;;;;;;;;;5020144;28;20199;-67
2024/01/04 14:46:21;;;;;;;7.47;2.47;;;;;;;;;;5023112;28;20196;-69